createdAt,value
2019-05-11T00:01:59.885Z,72.56
2019-05-11T00:04:29.007Z,72.58
2019-05-11T00:06:58.128Z,72.50
2019-05-11T00:09:27.295Z,72.65
2019-05-11T00:11:56.443Z,72.72
2019-05-11T00:14:25.636Z,72.57
2019-05-11T00:16:54.743Z,72.38
2019-05-11T00:19:23.864Z,72.28
2019-05-11T00:21:53.060Z,72.21
2019-05-11T00:24:22.182Z,72.33
2019-05-11T00:26:51.346Z,72.31
2019-05-11T00:29:20.526Z,72.34
2019-05-11T00:31:49.696Z,72.47
2019-05-11T00:34:18.826Z,72.46
2019-05-11T00:36:48.068Z,72.49
2019-05-11T00:39:17.226Z,72.52
2019-05-11T00:41:46.404Z,72.56
2019-05-11T00:44:15.543Z,72.73
2019-05-11T00:46:44.664Z,73.14
2019-05-11T00:49:13.778Z,73.54
2019-05-11T00:51:42.890Z,73.91
2019-05-11T00:54:12.038Z,73.88
2019-05-11T00:56:41.168Z,73.70
2019-05-11T00:59:21.312Z,73.57
2019-05-11T01:01:41.329Z,73.56
2019-05-11T01:04:10.471Z,73.47
2019-05-11T01:06:39.597Z,73.46
2019-05-11T01:09:08.806Z,73.47
2019-05-11T01:11:37.923Z,73.57
2019-05-11T01:14:07.155Z,73.64
2019-05-11T01:16:36.260Z,73.75
2019-05-11T01:19:05.399Z,73.85
2019-05-11T01:21:34.586Z,73.88
2019-05-11T01:24:03.686Z,74.00
2019-05-11T01:26:32.798Z,73.93
2019-05-11T01:29:01.939Z,73.94
2019-05-11T01:31:31.057Z,73.81
2019-05-11T01:34:00.197Z,73.55
2019-05-11T01:36:29.331Z,73.64
2019-05-11T01:38:58.467Z,73.63
2019-05-11T01:41:27.632Z,73.78
2019-05-11T01:43:56.831Z,73.79
2019-05-11T01:46:25.969Z,73.74
2019-05-11T01:48:55.124Z,73.84
2019-05-11T01:51:24.264Z,73.80
2019-05-11T01:53:53.377Z,73.79
2019-05-11T01:56:22.491Z,73.85
2019-05-11T01:58:51.633Z,73.90
2019-05-11T02:01:20.793Z,73.96
2019-05-11T02:03:49.907Z,73.87
2019-05-11T02:06:19.206Z,73.79
2019-05-11T02:08:48.345Z,73.80
2019-05-11T02:11:17.479Z,73.75
2019-05-11T02:13:46.630Z,73.82
2019-05-11T02:16:15.736Z,73.94
2019-05-11T02:18:44.877Z,74.08
2019-05-11T02:21:14.000Z,74.18
2019-05-11T02:23:43.089Z,74.16
2019-05-11T02:26:12.210Z,74.44
2019-05-11T02:28:41.535Z,74.50
2019-05-11T02:31:10.692Z,74.63
2019-05-11T02:33:39.792Z,74.61
2019-05-11T02:36:08.914Z,74.60
2019-05-11T02:38:38.066Z,74.62
2019-05-11T02:41:07.197Z,74.50
2019-05-11T02:43:36.575Z,74.54
2019-05-11T02:46:05.699Z,74.43
2019-05-11T02:48:34.820Z,74.41
2019-05-11T02:51:04.082Z,74.45
2019-05-11T02:53:34.835Z,74.46
2019-05-11T02:56:04.661Z,74.58
2019-05-11T02:58:33.793Z,74.64
2019-05-11T03:01:02.918Z,74.64
2019-05-11T03:03:32.075Z,74.55
2019-05-11T03:06:01.333Z,74.64
2019-05-11T03:08:30.472Z,74.77
2019-05-11T03:10:59.616Z,74.84
2019-05-11T03:13:28.732Z,74.91
2019-05-11T03:15:57.932Z,74.96
2019-05-11T03:18:27.040Z,74.77
2019-05-11T03:20:56.189Z,74.79
2019-05-11T03:23:25.313Z,74.86
2019-05-11T03:25:54.420Z,75.08
2019-05-11T03:28:23.552Z,75.14
2019-05-11T03:30:52.651Z,75.20
2019-05-11T03:33:21.812Z,75.19
2019-05-11T03:35:50.890Z,75.34
2019-05-11T03:38:19.992Z,75.30
2019-05-11T03:40:49.102Z,75.13
2019-05-11T03:43:18.216Z,75.06
2019-05-11T03:45:47.369Z,75.02
2019-05-11T03:48:16.487Z,74.87
2019-05-11T03:50:45.607Z,74.80
2019-05-11T03:53:14.777Z,74.83
2019-05-11T03:55:43.876Z,74.92
2019-05-11T03:58:13.087Z,74.87
2019-05-11T04:00:42.221Z,74.98
2019-05-11T04:03:11.356Z,75.10
2019-05-11T04:05:40.472Z,75.04
2019-05-11T04:08:09.605Z,75.00
2019-05-11T04:10:38.743Z,75.06
2019-05-11T04:13:07.893Z,75.28
2019-05-11T04:15:37.029Z,75.42
2019-05-11T04:18:06.173Z,75.57
2019-05-11T04:20:35.308Z,75.64
2019-05-11T04:23:04.508Z,75.47
2019-05-11T04:25:33.622Z,75.38
2019-05-11T04:28:02.750Z,75.29
2019-05-11T04:30:31.881Z,75.35
2019-05-11T04:33:01.035Z,75.35
2019-05-11T04:35:30.286Z,75.30
2019-05-11T04:37:59.393Z,75.01
2019-05-11T04:40:28.592Z,75.10
2019-05-11T04:42:57.812Z,75.20
2019-05-11T04:45:26.947Z,75.40
2019-05-11T04:47:56.069Z,75.47
2019-05-11T04:50:25.216Z,75.56
2019-05-11T04:52:54.360Z,75.59
2019-05-11T04:55:23.501Z,75.81
2019-05-11T04:57:52.621Z,75.77
2019-05-11T05:00:21.856Z,75.58
2019-05-11T05:02:51.003Z,75.44
2019-05-11T05:05:20.125Z,75.42
2019-05-11T05:07:50.709Z,75.75
2019-05-11T05:10:22.252Z,75.64
2019-05-11T05:12:52.982Z,75.46
2019-05-11T05:15:21.733Z,75.41
2019-05-11T05:17:50.897Z,75.24
2019-05-11T05:20:20.085Z,75.04
2019-05-11T05:22:49.197Z,74.97
2019-05-11T05:25:18.349Z,74.97
2019-05-11T05:27:47.451Z,74.93
2019-05-11T05:30:17.230Z,74.92
2019-05-11T05:32:46.342Z,74.74
2019-05-11T05:35:15.487Z,74.56
2019-05-11T05:37:44.756Z,74.81
2019-05-11T05:40:13.903Z,74.69
2019-05-11T05:42:43.051Z,74.54
2019-05-11T05:45:12.481Z,74.57
2019-05-11T05:47:41.654Z,74.71
2019-05-11T05:50:11.073Z,74.37
2019-05-11T05:52:40.223Z,74.21
2019-05-11T05:55:09.439Z,74.15
2019-05-11T05:57:38.599Z,74.04
2019-05-11T06:00:09.657Z,73.94
2019-05-11T06:02:38.805Z,73.75
2019-05-11T06:05:08.031Z,73.50
2019-05-11T06:07:37.187Z,73.39
2019-05-11T06:10:06.948Z,73.17
2019-05-11T06:12:36.066Z,73.19
2019-05-11T06:15:05.755Z,73.21
2019-05-11T06:17:34.878Z,73.11
2019-05-11T06:20:04.802Z,72.98
2019-05-11T06:22:33.997Z,72.67
2019-05-11T06:25:03.199Z,72.43
2019-05-11T06:27:32.324Z,72.53
2019-05-11T06:30:01.484Z,72.61
2019-05-11T06:32:30.615Z,72.32
2019-05-11T06:34:59.752Z,71.93
2019-05-11T06:37:28.916Z,72.22
2019-05-11T06:39:58.104Z,71.99
2019-05-11T06:42:27.279Z,71.91
2019-05-11T06:44:56.413Z,71.83
2019-05-11T06:47:25.542Z,71.67
2019-05-11T06:49:54.687Z,71.24
2019-05-11T06:52:23.813Z,70.92
2019-05-11T06:54:52.945Z,70.81
2019-05-11T06:57:22.054Z,71.00
2019-05-11T06:59:51.195Z,71.23
2019-05-11T07:02:20.365Z,71.63
2019-05-11T07:04:49.528Z,71.88
2019-05-11T07:07:18.688Z,71.97
2019-05-11T07:09:47.882Z,71.74
2019-05-11T07:12:17.151Z,71.87
2019-05-11T07:14:46.498Z,71.83
2019-05-11T07:17:15.668Z,71.74
2019-05-11T07:19:47.492Z,71.54
2019-05-11T07:22:15.705Z,71.28
2019-05-11T07:24:44.868Z,71.17
2019-05-11T07:27:14.014Z,70.94
2019-05-11T07:29:43.167Z,70.75
2019-05-11T07:32:21.937Z,70.56
2019-05-11T07:34:48.573Z,70.39
2019-05-11T07:37:18.520Z,70.12
2019-05-11T07:39:48.738Z,69.36
2019-05-11T07:42:18.211Z,69.44
2019-05-11T07:44:48.153Z,69.52
2019-05-11T07:47:18.644Z,69.12
2019-05-11T07:49:48.857Z,69.12
2019-05-11T07:52:18.346Z,69.16
2019-05-11T07:54:52.678Z,68.99
2019-05-11T07:57:18.693Z,68.96
2019-05-11T07:59:48.609Z,68.55
2019-05-11T08:02:18.018Z,68.51
2019-05-11T08:04:48.187Z,68.61
2019-05-11T08:07:18.212Z,68.64
2019-05-11T08:09:48.370Z,68.76
2019-05-11T08:12:19.223Z,68.37
2019-05-11T08:14:57.771Z,68.43
2019-05-11T08:17:19.348Z,68.32
2019-05-11T08:19:48.510Z,68.36
2019-05-11T08:22:22.534Z,68.15
2019-05-11T08:24:48.608Z,68.09
2019-05-11T08:27:18.679Z,68.05
2019-05-11T08:29:48.765Z,67.79
2019-05-11T08:32:18.408Z,67.81
2019-05-11T08:34:49.060Z,67.75
2019-05-11T08:37:18.892Z,67.79
2019-05-11T08:39:48.332Z,67.74
2019-05-11T08:42:18.041Z,67.77
2019-05-11T08:44:48.336Z,67.66
2019-05-11T08:47:17.864Z,67.26
2019-05-11T08:49:48.443Z,67.52
2019-05-11T08:52:18.650Z,67.51
2019-05-11T08:54:48.729Z,67.49
2019-05-11T08:57:18.151Z,67.44
2019-05-11T08:59:48.394Z,67.60
2019-05-11T09:02:18.649Z,67.42
2019-05-11T09:04:48.526Z,67.27
2019-05-11T09:07:18.434Z,66.87
2019-05-11T09:09:48.352Z,66.99
2019-05-11T09:12:18.314Z,66.85
2019-05-11T09:14:47.966Z,67.08
2019-05-11T09:17:18.262Z,67.15
2019-05-11T09:19:48.149Z,67.42
2019-05-11T09:22:18.719Z,67.32
2019-05-11T09:24:48.023Z,66.87
2019-05-11T09:27:18.383Z,66.65
2019-05-11T09:29:48.075Z,66.43
2019-05-11T09:32:17.948Z,66.37
2019-05-11T09:34:48.459Z,67.10
2019-05-11T09:37:18.426Z,65.91
2019-05-11T09:39:47.926Z,65.76
2019-05-11T09:42:17.923Z,65.95
2019-05-11T09:44:48.552Z,65.86
2019-05-11T09:47:18.938Z,65.38
2019-05-11T09:49:50.956Z,65.08
2019-05-11T09:52:19.135Z,65.00
2019-05-11T09:54:48.790Z,64.45
2019-05-11T09:57:18.594Z,64.41
2019-05-11T09:59:47.964Z,63.94
2019-05-11T10:02:20.679Z,63.24
2019-05-11T10:04:48.470Z,61.69
2019-05-11T10:07:18.253Z,61.28
2019-05-11T10:09:47.947Z,61.13
2019-05-11T10:12:18.106Z,61.41
2019-05-11T10:14:48.573Z,61.54
2019-05-11T10:17:18.291Z,61.50
2019-05-11T10:19:49.642Z,61.17
2019-05-11T10:22:18.685Z,60.90
2019-05-11T10:24:47.838Z,60.81
2019-05-11T10:27:18.894Z,60.39
2019-05-11T10:29:48.496Z,60.15
2019-05-11T10:32:18.410Z,60.12
2019-05-11T10:34:47.858Z,60.21
2019-05-11T10:37:17.712Z,60.37
2019-05-11T10:39:48.851Z,60.38
2019-05-11T10:42:18.119Z,59.64
2019-05-11T10:44:47.961Z,60.60
2019-05-11T10:47:18.456Z,60.42
2019-05-11T10:49:48.479Z,60.66
2019-05-11T10:52:18.118Z,60.73
2019-05-11T10:54:47.891Z,60.61
2019-05-11T10:57:18.909Z,60.40
2019-05-11T10:59:48.877Z,60.35
2019-05-11T11:02:18.630Z,59.74
2019-05-11T11:04:48.541Z,60.27
2019-05-11T11:07:19.454Z,60.03
2019-05-11T11:09:49.145Z,60.19
2019-05-11T11:12:18.835Z,60.57
2019-05-11T11:14:48.321Z,60.48
2019-05-11T11:17:19.194Z,60.61
2019-05-11T11:19:48.801Z,60.73
2019-05-11T11:22:35.922Z,60.95
2019-05-11T11:24:48.888Z,60.90
2019-05-11T11:27:18.604Z,61.12
2019-05-11T11:29:47.933Z,61.83
2019-05-11T11:32:18.370Z,61.85
2019-05-11T11:34:48.474Z,61.94
2019-05-11T11:37:17.808Z,62.03
2019-05-11T11:39:47.620Z,62.04
2019-05-11T11:42:18.476Z,62.10
2019-05-11T11:44:48.362Z,62.01
2019-05-11T11:47:21.339Z,62.58
2019-05-11T11:49:48.386Z,62.69
2019-05-11T11:52:18.778Z,62.69
2019-05-11T11:54:48.064Z,62.93
2019-05-11T11:57:18.321Z,62.88
2019-05-11T11:59:48.131Z,62.92
2019-05-11T12:02:19.105Z,63.22
2019-05-11T12:04:48.690Z,63.69
2019-05-11T12:07:18.135Z,63.76
2019-05-11T12:09:48.353Z,63.93
2019-05-11T12:12:18.624Z,64.05
2019-05-11T12:14:48.183Z,64.60
2019-05-11T12:17:18.177Z,64.83
2019-05-11T12:19:47.995Z,65.05
2019-05-11T12:22:18.803Z,65.71
2019-05-11T12:24:48.394Z,65.62
2019-05-11T12:27:18.339Z,65.94
2019-05-11T12:29:47.804Z,66.19
2019-05-11T12:32:23.067Z,66.48
2019-05-11T12:34:52.183Z,66.64
2019-05-11T12:37:22.087Z,66.92
2019-05-11T12:39:51.331Z,66.93
2019-05-11T12:42:20.539Z,66.94
2019-05-11T12:44:49.732Z,67.02
2019-05-11T12:47:24.280Z,67.32
2019-05-11T12:49:49.811Z,67.33
2019-05-11T12:52:18.953Z,67.45
2019-05-11T12:54:48.131Z,67.27
2019-05-11T12:57:18.681Z,67.29
2019-05-11T12:59:48.757Z,67.37
2019-05-11T13:02:19.859Z,67.70
2019-05-11T13:04:49.100Z,67.82
2019-05-11T13:07:19.675Z,67.67
2019-05-11T13:09:49.033Z,67.37
2019-05-11T13:12:18.728Z,68.21
2019-05-11T13:14:48.858Z,68.15
2019-05-11T13:17:18.795Z,67.98
2019-05-11T13:19:49.251Z,68.27
2019-05-11T13:22:18.602Z,68.61
2019-05-11T13:24:48.264Z,67.76
2019-05-11T13:27:18.089Z,67.50
2019-05-11T13:29:48.606Z,67.38
2019-05-11T13:32:18.771Z,67.40
2019-05-11T13:34:48.252Z,67.37
2019-05-11T13:37:18.849Z,67.42
2019-05-11T13:39:51.135Z,67.25
2019-05-11T13:42:23.161Z,66.69
2019-05-11T13:44:51.203Z,66.40
2019-05-11T13:47:23.254Z,66.29
2019-05-11T13:49:52.477Z,66.67
2019-05-11T13:52:21.654Z,66.51
2019-05-11T13:54:50.833Z,66.26
2019-05-11T13:57:20.095Z,66.54
2019-05-11T13:59:49.262Z,66.54
2019-05-11T14:02:18.587Z,66.71
2019-05-11T14:04:48.214Z,66.41
2019-05-11T14:07:18.597Z,66.49
2019-05-11T14:09:48.504Z,65.95
2019-05-11T14:12:18.265Z,65.33
2019-05-11T14:14:48.093Z,64.74
2019-05-11T14:17:18.672Z,65.18
2019-05-11T14:19:49.223Z,65.63
2019-05-11T14:22:18.627Z,65.53
2019-05-11T14:24:48.365Z,64.95
2019-05-11T14:27:18.753Z,64.63
2019-05-11T14:29:48.677Z,64.19
2019-05-11T14:32:28.440Z,64.36
2019-05-11T14:34:57.979Z,64.86
2019-05-11T14:37:28.544Z,64.87
2019-05-11T14:39:58.426Z,64.91
2019-05-11T14:42:28.635Z,64.56
2019-05-11T14:44:58.939Z,64.26
2019-05-11T14:47:28.446Z,63.74
2019-05-11T14:49:57.941Z,63.53
2019-05-11T14:52:28.055Z,63.70
2019-05-11T14:54:58.431Z,63.46
2019-05-11T14:57:27.981Z,62.76
2019-05-11T14:59:58.614Z,62.83
2019-05-11T15:02:48.569Z,62.84
2019-05-11T15:05:18.476Z,62.53
2019-05-11T15:07:48.462Z,62.71
2019-05-11T15:10:19.225Z,62.72
2019-05-11T15:12:48.920Z,62.24
2019-05-11T15:15:18.819Z,62.07
2019-05-11T15:17:51.102Z,62.03
2019-05-11T15:20:20.576Z,62.21
2019-05-11T15:22:49.752Z,62.16
2019-05-11T15:25:20.023Z,61.91
2019-05-11T15:27:49.306Z,61.51
2019-05-11T15:30:19.067Z,60.82
2019-05-11T15:32:49.934Z,60.47
2019-05-11T15:35:19.202Z,60.29
2019-05-11T15:37:48.455Z,60.35
2019-05-11T15:40:18.983Z,60.56
2019-05-11T15:42:48.768Z,60.46
2019-05-11T15:45:38.089Z,60.50
2019-05-11T15:48:08.424Z,60.66
2019-05-11T15:50:40.046Z,60.25
2019-05-11T15:53:08.856Z,59.83
2019-05-11T15:55:41.795Z,60.00
2019-05-11T15:58:08.812Z,60.13
2019-05-11T16:00:40.013Z,60.13
2019-05-11T16:03:08.997Z,60.36
2019-05-11T16:05:38.224Z,60.51
2019-05-11T16:08:08.360Z,60.50
2019-05-11T16:10:38.403Z,60.46
2019-05-11T16:13:09.224Z,60.51
2019-05-11T16:15:38.674Z,60.27
2019-05-11T16:18:08.469Z,60.29
2019-05-11T16:20:37.775Z,59.98
2019-05-11T16:23:06.955Z,59.97
2019-05-11T16:25:38.246Z,59.97
2019-05-11T16:28:07.799Z,59.98
2019-05-11T16:30:37.963Z,60.29
2019-05-11T16:33:08.758Z,59.98
2019-05-11T16:35:38.376Z,59.92
2019-05-11T16:38:07.743Z,60.00
2019-05-11T16:40:38.724Z,60.13
2019-05-11T16:43:08.580Z,59.98
2019-05-11T16:45:37.741Z,60.14
2019-05-11T16:48:07.981Z,60.24
2019-05-11T16:50:38.350Z,60.19
2019-05-11T16:53:07.598Z,60.00
2019-05-11T16:55:37.708Z,60.08
2019-05-11T16:58:08.254Z,59.83
2019-05-11T17:00:41.931Z,59.65
2019-05-11T17:03:08.423Z,59.40
2019-05-11T17:05:38.322Z,59.44
2019-05-11T17:08:08.081Z,59.47
2019-05-11T17:10:37.534Z,59.39
2019-05-11T17:13:08.579Z,58.89
2019-05-11T17:15:37.575Z,58.33
2019-05-11T17:18:08.103Z,58.35
2019-05-11T17:20:37.303Z,57.96
2019-05-11T17:23:06.543Z,57.03
2019-05-11T17:25:37.801Z,56.79
2019-05-11T17:28:09.415Z,56.35
2019-05-11T17:30:38.648Z,56.25
2019-05-11T17:33:08.669Z,55.54
2019-05-11T17:35:38.141Z,54.60
2019-05-11T17:38:07.995Z,52.69
2019-05-11T17:40:37.834Z,53.07
2019-05-11T17:43:09.089Z,53.69
2019-05-11T17:45:37.990Z,53.69
2019-05-11T17:48:08.470Z,53.31
2019-05-11T17:50:38.302Z,53.00
2019-05-11T17:53:07.650Z,52.46
2019-05-11T17:55:38.399Z,52.48
2019-05-11T17:58:08.696Z,51.77
2019-05-11T18:00:39.206Z,51.28
2019-05-11T18:03:11.426Z,51.85
2019-05-11T18:05:39.408Z,51.07
2019-05-11T18:08:08.829Z,51.62
2019-05-11T18:10:38.553Z,50.90
2019-05-11T18:13:07.706Z,50.66
2019-05-11T18:15:38.067Z,50.96
2019-05-11T18:18:09.456Z,51.00
2019-05-11T18:20:38.269Z,51.02
2019-05-11T18:23:08.255Z,51.01
2019-05-11T18:25:39.045Z,50.70
2019-05-11T18:28:08.423Z,51.19
2019-05-11T18:30:38.758Z,51.03
2019-05-11T18:33:08.449Z,51.29
2019-05-11T18:35:37.791Z,51.28
2019-05-11T18:38:08.560Z,51.50
2019-05-11T18:40:38.329Z,51.77
2019-05-11T18:43:08.567Z,51.67
2019-05-11T18:45:38.398Z,52.14
2019-05-11T18:48:08.134Z,52.93
2019-05-11T18:50:38.511Z,52.92
2019-05-11T18:53:09.263Z,53.26
2019-05-11T18:55:38.568Z,53.74
2019-05-11T18:58:07.709Z,54.56
2019-05-11T19:00:38.205Z,54.81
2019-05-11T19:03:08.782Z,55.32
2019-05-11T19:05:38.705Z,55.41
2019-05-11T19:08:07.936Z,56.06
2019-05-11T19:10:38.358Z,56.34
2019-05-11T19:13:09.732Z,56.45
2019-05-11T19:15:39.005Z,56.72
2019-05-11T19:18:08.094Z,56.62
2019-05-11T19:20:45.119Z,57.02
2019-05-11T19:23:08.421Z,57.33
2019-05-11T19:25:37.662Z,57.63
2019-05-11T19:28:08.571Z,57.69
2019-05-11T19:30:38.446Z,57.93
2019-05-11T19:33:10.765Z,57.99
2019-05-11T19:35:38.513Z,58.23
2019-05-11T19:38:08.664Z,58.35
2019-05-11T19:40:38.651Z,58.69
2019-05-11T19:43:08.355Z,58.54
2019-05-11T19:45:38.554Z,58.81
2019-05-11T19:48:08.487Z,59.08
2019-05-11T19:50:38.201Z,59.07
2019-05-11T19:53:08.663Z,59.31
2019-05-11T19:55:37.788Z,59.42
2019-05-11T19:58:06.966Z,59.63
2019-05-11T20:00:38.005Z,59.61
2019-05-11T20:03:09.170Z,59.77
2019-05-11T20:05:38.115Z,60.00
2019-05-11T20:08:07.942Z,59.94
2019-05-11T20:10:38.322Z,59.88
2019-05-11T20:13:08.212Z,59.99
2019-05-11T20:15:38.113Z,60.00
2019-05-11T20:18:07.948Z,60.07
2019-05-11T20:20:37.718Z,60.20
2019-05-11T20:23:07.798Z,60.30
2019-05-11T20:25:37.991Z,60.43
2019-05-11T20:28:08.145Z,60.59
2019-05-11T20:30:37.350Z,60.70
2019-05-11T20:33:08.574Z,60.84
2019-05-11T20:35:38.309Z,60.70
2019-05-11T20:38:08.749Z,60.85
2019-05-11T20:40:37.959Z,61.05
2019-05-11T20:43:07.990Z,61.04
2019-05-11T20:45:37.790Z,61.20
2019-05-11T20:48:07.957Z,60.77
2019-05-11T20:50:37.851Z,61.06
2019-05-11T20:53:08.592Z,60.94
2019-05-11T20:55:37.989Z,60.91
2019-05-11T20:58:08.623Z,61.12
2019-05-11T21:00:38.432Z,61.07
2019-05-11T21:03:08.043Z,61.38
2019-05-11T21:05:37.191Z,61.39
2019-05-11T21:08:08.410Z,61.28
2019-05-11T21:10:39.285Z,61.65
2019-05-11T21:13:08.839Z,61.59
2019-05-11T21:15:38.664Z,61.71
2019-05-11T21:18:08.030Z,61.78
2019-05-11T21:20:38.081Z,61.87
2019-05-11T21:23:08.252Z,62.16
2019-05-11T21:25:37.865Z,62.36
2019-05-11T21:28:08.567Z,62.29
2019-05-11T21:30:40.013Z,62.44
2019-05-11T21:33:08.822Z,62.03
2019-05-11T21:35:38.599Z,62.27
2019-05-11T21:38:07.881Z,62.42
2019-05-11T21:40:38.080Z,62.59
2019-05-11T21:43:08.693Z,62.67
2019-05-11T21:45:40.480Z,62.43
2019-05-11T21:48:08.980Z,62.64
2019-05-11T21:50:38.377Z,62.75
2019-05-11T21:53:10.247Z,62.93
2019-05-11T21:55:38.448Z,62.86
2019-05-11T21:58:09.062Z,62.87
2019-05-11T22:00:38.794Z,63.04
2019-05-11T22:03:10.321Z,63.07
2019-05-11T22:05:39.034Z,63.08
2019-05-11T22:08:08.692Z,63.17
2019-05-11T22:10:38.564Z,63.31
2019-05-11T22:13:07.812Z,63.46
2019-05-11T22:15:38.579Z,63.59
2019-05-11T22:18:08.166Z,63.55
2019-05-11T22:20:40.520Z,63.65
2019-05-11T22:23:08.582Z,63.73
2019-05-11T22:25:38.283Z,63.29
2019-05-11T22:28:08.515Z,63.41
2019-05-11T22:30:39.315Z,63.59
2019-05-11T22:33:09.016Z,63.49
2019-05-11T22:35:38.550Z,63.43
2019-05-11T22:38:08.465Z,63.39
2019-05-11T22:40:38.399Z,63.61
2019-05-11T22:43:09.347Z,63.71
2019-05-11T22:45:38.661Z,63.73
2019-05-11T22:48:08.143Z,63.71
2019-05-11T22:50:38.145Z,63.81
2019-05-11T22:53:08.805Z,63.75
2019-05-11T22:55:38.542Z,63.98
2019-05-11T22:58:08.572Z,64.05
2019-05-11T23:00:45.485Z,64.04
2019-05-11T23:03:14.854Z,64.11
2019-05-11T23:05:43.970Z,64.22
2019-05-11T23:08:13.124Z,64.42
2019-05-11T23:10:42.254Z,64.57
2019-05-11T23:13:11.806Z,64.66
2019-05-11T23:15:40.970Z,64.73
2019-05-11T23:18:10.062Z,64.75
2019-05-11T23:20:39.239Z,64.83
2019-05-11T23:23:08.920Z,64.81
2019-05-11T23:25:39.257Z,64.86
2019-05-11T23:28:08.615Z,65.09
2019-05-11T23:30:38.997Z,65.26
2019-05-11T23:33:08.303Z,65.21
2019-05-11T23:35:38.261Z,65.24
2019-05-11T23:38:07.643Z,65.36
2019-05-11T23:40:37.972Z,65.34
2019-05-11T23:43:08.654Z,65.44
2019-05-11T23:45:38.335Z,65.52
2019-05-11T23:48:07.603Z,65.73
2019-05-11T23:50:38.688Z,65.65
2019-05-11T23:53:10.256Z,65.78
2019-05-11T23:55:38.581Z,65.81
2019-05-11T23:58:08.251Z,66.01
